Latest Weather Observations for Montague Island

IDN60801

Issued at 6:35 pm EST Friday 25 July 2014 (issued every 30 minutes, with the page automatically refreshed every 10 minutes)

About weather observations | Map of weather stations | Latest weather observations for NSW | Other Formats
Station Details ID: 069017 Name: MONTAGUE ISLAND LIGHTHOUSE Lat: -36.25 Lon: 150.23 Height: 52.0 m
Data from the previous 72 hours. | See also: Recent months at Montague Island
Date/Time
EST
Temp
°C
App
Temp
°C
Dew
Point
Rel
Hum
%
Delta-T
°C
Wind Press
QNH
hPa
Press
MSL
hPa
Rain
since 9 am
mm
Dir
 
Spd
km/h
Gust
km/h
Spd
kts
Gust
kts
25/06:30pm 16.7 14.7 12.7 77 2.2 WSW 15 19 8 10 1018.7 - 0.0
25/06:00pm 17.9 15.6 10.5 62 4.0 NNW 13 17 7 9 1018.3 1018.3 0.0
25/05:30pm 18.2 14.1 11.3 64 3.8 N 24 32 13 17 1017.8 - 0.0
25/05:00pm 17.9 13.1 13.0 73 2.7 NNE 30 37 16 20 1017.5 1017.5 0.0
25/04:30pm 17.4 13.5 13.3 77 2.3 NE 26 33 14 18 1017.1 - 0.0
25/04:00pm 17.5 13.9 13.2 76 2.4 NE 24 28 13 15 1017.1 1017.1 0.0
25/03:30pm 18.1 15.3 12.5 70 3.1 NE 19 24 10 13 1017.0 - 0.0
25/03:00pm 18.2 14.3 12.0 67 3.4 NNE 24 28 13 15 1016.9 1016.9 0.0
25/02:30pm 18.4 16.4 12.6 69 3.2 NNE 15 19 8 10 1017.0 - 0.0
25/02:00pm 19.1 16.2 10.9 59 4.5 N 17 22 9 12 1017.1 1017.1 0.0
25/01:30pm 17.9 14.1 11.2 65 3.6 N 22 26 12 14 1017.2 - 0.0
25/01:00pm 18.0 13.0 11.1 64 3.7 N 28 35 15 19 1017.5 1017.5 0.0
25/12:30pm 18.2 13.0 11.5 65 3.7 N 30 39 16 21 1017.6 - 0.0
25/12:00pm 17.7 12.9 11.5 67 3.4 NNW 28 37 15 20 1017.9 1017.9 0.0
25/11:30am 17.6 13.1 11.4 67 3.4 N 26 33 14 18 1018.5 - 0.0
25/11:00am 16.0 13.8 10.7 71 2.8 N 13 19 7 10 1018.9 1018.9 0.0
25/10:30am 15.0 12.3 10.2 73 2.5 NNW 15 20 8 11 1019.4 - 0.0
25/10:00am 14.7 11.1 9.9 73 2.5 NW 19 22 10 12 1019.5 1019.5 0.0
25/09:30am 14.0 9.7 9.4 74 2.4 NNW 22 26 12 14 1019.4 - 0.0
25/09:00am 13.9 10.2 9.5 75 2.3 NNW 19 22 10 12 1019.3 1019.3 0.0
25/08:30am 13.6 9.9 10.0 79 1.9 NNW 20 24 11 13 1019.1 - 0.0
25/08:00am 13.0 9.3 10.2 83 1.4 NNW 20 26 11 14 1018.8 1018.8 0.0
25/07:30am 12.5 7.8 9.1 80 1.7 NNW 24 28 13 15 1018.6 - 0.0
25/07:00am 12.4 8.1 9.2 81 1.6 NNW 22 28 12 15 1018.2 1018.2 0.0
25/06:30am 12.9 8.4 10.1 83 1.4 NNW 24 30 13 16 1018.1 - 0.0
25/06:00am 13.3 9.8 11.0 86 1.2 NNW 20 28 11 15 1017.8 1017.8 0.0
25/05:30am 13.1 10.3 11.2 88 1.0 NNW 17 20 9 11 1017.6 - 0.0
25/05:00am 13.8 9.8 11.7 87 1.1 NNW 24 30 13 16 1017.6 1017.6 0.0
25/04:30am 14.5 10.5 11.7 83 1.5 N 24 32 13 17 1017.5 - 0.0
25/04:00am 14.1 8.6 10.7 80 1.8 N 30 33 16 18 1017.4 1017.4 0.0
25/03:30am 13.8 10.6 11.1 84 1.4 NNW 19 24 10 13 1017.5 - 0.0
25/03:00am 13.8 9.9 10.8 82 1.6 N 22 28 12 15 1017.6 1017.6 0.0
25/02:30am 13.1 8.7 10.5 84 1.4 N 24 28 13 15 1017.5 - 0.0
25/02:00am 12.7 10.1 9.5 81 1.6 N 13 17 7 9 1017.9 1017.9 0.0
25/01:30am 13.4 11.1 10.4 82 1.6 NNW 13 17 7 9 1018.0 - 0.0
25/01:00am 13.6 10.4 10.0 79 1.9 N 17 22 9 12 1017.9 1017.9 0.0
25/12:30am 13.6 10.7 11.1 85 1.3 N 17 20 9 11 1017.9 - 0.0
25/12:00am 13.8 10.7 11.5 86 1.2 N 19 22 10 12 1018.1 1018.1 0.0
 
Date/Time
EST
Temp
°C
App
Temp
°C
Dew
Point
Rel
Hum
%
Delta-T
°C
Wind Press
QNH
hPa
Press
MSL
hPa
Rain
since 9 am
mm
Dir
 
Spd
km/h
Gust
km/h
Spd
kts
Gust
kts
24/11:30pm 14.3 10.9 11.1 81 1.7 N 20 24 11 13 1018.5 - 0.0
24/11:00pm 14.5 12.2 11.7 83 1.5 NNW 15 19 8 10 1018.7 1018.7 0.0
24/10:30pm 14.3 12.3 11.5 83 1.5 NNW 13 15 7 8 1018.6 - 0.0
24/10:00pm 14.2 12.6 11.5 84 1.4 NW 11 13 6 7 1018.7 1018.7 0.0
24/09:30pm 14.3 12.7 11.6 84 1.4 NW 11 13 6 7 1018.8 - 0.0
24/09:00pm 14.5 13.7 11.8 84 1.5 NW 7 9 4 5 1018.8 1018.8 0.0
24/08:30pm 14.4 13.2 11.7 84 1.5 NW 9 9 5 5 1018.9 - 0.0
24/08:00pm 14.9 13.8 12.0 83 1.6 NNW 9 11 5 6 1018.8 1018.8 0.0
24/07:30pm 15.6 12.0 11.8 78 2.1 N 22 28 12 15 1018.6 - 0.0
24/07:00pm 15.6 11.2 11.8 78 2.1 N 26 32 14 17 1018.5 1018.5 0.0
24/06:30pm 15.7 11.7 11.9 78 2.1 N 24 32 13 17 1018.2 - 0.0
24/06:00pm 15.8 11.2 11.0 73 2.6 N 26 33 14 18 1018.1 1018.1 0.0
24/05:30pm 15.9 11.1 11.5 75 2.4 N 28 35 15 19 1017.9 - 0.0
24/05:00pm 15.7 10.7 10.9 73 2.6 N 28 37 15 20 1017.6 1017.6 0.0
24/04:30pm 15.3 9.8 10.5 73 2.5 NNE 30 41 16 22 1017.5 - 0.0
24/04:00pm 15.7 9.0 11.1 74 2.5 N 37 44 20 24 1017.1 1017.1 0.0
24/03:30pm 15.7 9.7 10.7 72 2.7 NNE 33 39 18 21 1016.7 - 0.0
24/03:00pm 15.6 10.3 11.2 75 2.4 NNE 30 35 16 19 1016.8 1016.8 0.0
24/02:30pm 15.3 9.8 10.7 74 2.4 N 30 39 16 21 1017.2 - 0.0
24/02:00pm 15.5 10.1 10.9 74 2.4 N 30 41 16 22 1017.8 1017.8 0.0
24/01:30pm 15.3 10.7 11.1 76 2.2 N 26 37 14 20 1018.0 - 0.0
24/01:00pm 14.9 10.4 10.1 73 2.5 N 24 33 13 18 1018.3 1018.3 0.0
24/12:30pm 14.5 9.8 10.5 77 2.1 N 26 33 14 18 1018.8 - 0.0
24/12:00pm 14.3 10.7 10.5 78 2.0 NNE 20 28 11 15 1019.2 1019.2 0.0
24/11:30am 13.6 10.7 9.5 76 2.1 N 15 20 8 11 1019.9 - 0.0
24/11:00am 12.9 9.0 8.6 75 2.1 NNW 19 24 10 13 1020.5 1020.5 0.0
24/10:30am 13.0 9.0 8.9 76 2.1 NNW 20 26 11 14 1021.0 - 0.0
24/10:00am 12.0 7.9 8.5 79 1.7 NNW 20 24 11 13 1021.0 1021.0 0.0
24/09:30am 11.6 8.1 8.6 82 1.5 NNW 17 24 9 13 1020.9 - 0.0
24/09:00am 11.1 6.8 8.0 81 1.5 NNW 20 24 11 13 1020.7 1020.7 0.0
24/08:30am 10.8 6.2 8.0 83 1.4 NNW 22 28 12 15 1020.6 - 0.0
24/08:00am 10.7 6.0 7.9 83 1.4 NNW 22 28 12 15 1020.5 1020.5 0.0
24/07:30am 10.7 6.0 7.9 83 1.4 NNW 22 26 12 14 1020.4 - 0.0
24/07:00am 10.7 7.5 8.6 87 1.0 NNW 15 19 8 10 1020.5 1020.5 0.0
24/06:30am 10.4 8.0 8.7 89 0.8 NW 11 15 6 8 1020.3 - 0.0
24/06:00am 10.6 7.8 8.5 87 1.0 NNW 13 15 7 8 1020.2 1020.2 0.0
24/05:30am 10.5 7.4 8.8 89 0.8 NNW 15 20 8 11 1020.1 - 0.0
24/05:00am 10.6 7.2 9.0 90 0.8 NNW 17 19 9 10 1020.0 1020.0 0.0
24/04:30am 10.6 7.1 8.7 88 0.9 NNW 17 19 9 10 1019.9 - 0.0
24/04:00am 10.9 7.1 9.0 88 0.9 N 19 22 10 12 1019.8 1019.8 0.0
24/03:30am 11.5 8.1 9.2 86 1.2 NNW 17 20 9 11 1019.7 - 0.0
24/03:00am 11.5 7.7 9.1 85 1.2 NNW 19 22 10 12 1019.6 1019.6 0.0
24/02:30am 11.6 8.7 9.7 88 1.0 NNW 15 20 8 11 1019.8 - 0.0
24/02:00am 11.6 8.7 9.5 87 1.1 NW 15 20 8 11 1020.2 1020.2 0.0
24/01:30am 12.0 8.7 9.7 86 1.2 NNW 17 20 9 11 1020.3 - 0.0
24/01:00am 12.3 9.5 10.0 86 1.2 NNW 15 20 8 11 1020.6 1020.6 0.0
24/12:30am 12.4 9.2 10.0 85 1.2 NNW 17 19 9 10 1020.9 - 0.0
24/12:00am 12.5 9.8 10.2 86 1.2 NNW 15 19 8 10 1021.3 1021.3 0.0
 
Date/Time
EST
Temp
°C
App
Temp
°C
Dew
Point
Rel
Hum
%
Delta-T
°C
Wind Press
QNH
hPa
Press
MSL
hPa
Rain
since 9 am
mm
Dir
 
Spd
km/h
Gust
km/h
Spd
kts
Gust
kts
23/11:30pm 12.4 10.1 10.3 87 1.1 NNW 13 19 7 10 1021.8 - 0.0
23/11:00pm 12.8 10.5 10.5 86 1.2 NW 13 17 7 9 1022.0 1022.0 0.0
23/10:30pm 12.5 10.5 10.0 85 1.3 NW 11 15 6 8 1022.2 - 0.0
23/10:00pm 12.5 10.4 9.9 84 1.3 NW 11 15 6 8 1022.3 1022.3 0.0
23/09:30pm 12.6 9.7 9.8 83 1.4 NW 15 17 8 9 1022.3 - 0.0
23/09:00pm 12.7 11.0 9.9 83 1.4 NW 9 11 5 6 1022.2 1022.2 0.0
23/08:30pm 12.9 11.2 9.9 82 1.5 NW 9 11 5 6 1022.2 - 0.0
23/08:00pm 13.2 10.9 9.1 76 2.1 NNW 11 19 6 10 1022.3 1022.3 0.0
23/07:30pm 13.4 10.6 8.5 72 2.5 N 13 17 7 9 1022.2 - 0.0
23/07:00pm 13.3 10.4 8.2 71 2.5 N 13 15 7 8 1022.1 1022.1 0.0
23/06:30pm 13.5 11.0 8.1 70 2.7 NNE 11 15 6 8 1022.0 - 0.0
23/06:00pm 13.3 10.6 7.3 67 2.9 N 11 17 6 9 1021.9 1021.9 0.0
23/05:30pm 13.4 11.1 7.4 67 2.9 NNE 9 11 5 6 1021.5 - 0.0
23/05:00pm 13.5 11.5 7.3 66 3.0 NNE 7 11 4 6 1021.4 1021.4 0.0
23/04:30pm 13.5 11.5 7.3 66 3.0 NE 7 11 4 6 1021.4 - 0.0
23/04:00pm 13.6 11.6 7.2 65 3.1 NNE 7 11 4 6 1021.4 1021.4 0.0
23/03:30pm 13.8 11.8 6.9 63 3.4 NNE 7 9 4 5 1021.4 - 0.0
23/03:00pm 14.2 12.1 6.8 61 3.6 NE 7 11 4 6 1021.5 1021.5 0.0
23/02:30pm 14.3 11.8 6.6 60 3.7 NE 9 13 5 7 1021.5 - 0.0
23/02:00pm 14.2 12.0 6.3 59 3.8 ENE 7 11 4 6 1021.6 1021.6 0.0
23/01:30pm 14.2 12.1 6.8 61 3.6 ENE 7 11 4 6 1021.9 - 0.0
23/01:00pm 14.2 12.1 6.6 60 3.7 E 7 11 4 6 1022.3 1022.3 0.0
23/12:30pm 13.8 11.8 6.4 61 3.6 E 6 9 3 5 1022.8 - 0.0
23/12:00pm 14.1 12.2 6.9 62 3.5 E 6 7 3 4 1023.4 1023.4 0.0
23/11:30am 14.2 12.7 7.0 62 3.5 E 4 7 2 4 1024.0 - 0.0
23/11:00am 14.3 12.8 6.6 60 3.7 NE 4 6 2 3 1024.5 1024.5 0.0
23/10:30am 14.6 12.8 7.2 61 3.6 W 6 9 3 5 1024.8 - 0.0
23/10:00am 13.8 11.8 6.9 63 3.3 W 7 11 4 6 1025.0 1025.0 0.0
23/09:30am 13.4 11.2 7.8 69 2.8 W 9 11 5 6 1024.9 - 0.0
23/09:00am 12.5 10.3 7.8 73 2.3 W 9 11 5 6 1024.7 1024.7 0.0
23/08:30am 12.4 10.4 8.5 77 1.9 WSW 9 13 5 7 1024.6 - 0.0
23/08:00am 11.4 9.7 8.4 82 1.5 W 7 9 4 5 1024.4 1024.4 0.0
23/07:30am 10.4 8.7 8.5 88 0.9 W 7 9 4 5 1024.4 - 0.0
23/07:00am 9.8 7.9 7.7 87 1.0 WNW 7 9 4 5 1024.3 1024.3 0.0
23/06:30am 9.9 7.6 7.5 85 1.1 W 9 11 5 6 1023.9 - 0.0
23/06:00am 10.1 8.1 7.3 83 1.3 W 7 9 4 5 1023.5 1023.5 0.0
23/05:30am 10.6 8.1 8.4 86 1.1 W 11 13 6 7 1023.5 - 0.0
23/05:00am 10.3 8.6 8.4 88 0.9 W 7 11 4 6 1023.3 1023.3 0.0
23/04:30am 10.6 8.9 8.5 87 1.0 W 7 9 4 5 1023.1 - 0.0
23/04:00am 10.9 9.5 8.8 87 1.0 SW 6 9 3 5 1023.0 1023.0 0.0
23/03:30am 10.8 9.1 8.4 85 1.2 WSW 7 9 4 5 1023.0 - 0.0
23/03:00am 10.9 8.8 8.1 83 1.4 WSW 9 11 5 6 1023.1 1023.1 0.0
23/02:30am 11.1 9.0 8.3 83 1.4 WSW 9 11 5 6 1023.5 - 0.0
23/02:00am 11.3 8.4 8.3 82 1.5 W 13 17 7 9 1023.6 1023.6 0.0
23/01:30am 11.6 9.5 8.1 79 1.7 SW 9 11 5 6 1023.8 - 0.0
23/01:00am 11.9 9.3 7.8 76 2.0 SW 11 15 6 8 1023.8 1023.8 0.0
23/12:30am 12.1 9.6 8.4 78 1.8 WSW 11 15 6 8 1024.1 - 0.0
23/12:00am 12.1 9.3 8.6 79 1.7 WSW 13 19 7 10 1024.4 1024.4 0.0
 
Date/Time
EST
Temp
°C
App
Temp
°C
Dew
Point
Rel
Hum
%
Delta-T
°C
Wind Press
QNH
hPa
Press
MSL
hPa
Rain
since 9 am
mm
Dir
 
Spd
km/h
Gust
km/h
Spd
kts
Gust
kts
22/11:30pm 12.1 8.2 8.8 80 1.6 W 19 24 10 13 1024.5 - 0.0
22/11:00pm 12.3 7.5 8.8 79 1.7 WSW 24 28 13 15 1024.5 1024.5 0.0
22/10:30pm 12.2 7.4 8.7 79 1.7 SW 24 28 13 15 1024.4 - 0.0
22/10:00pm 12.2 8.6 8.3 77 1.9 WSW 17 24 9 13 1024.3 1024.3 0.0
22/09:30pm 12.6 9.8 8.5 76 2.0 SW 13 17 7 9 1024.2 - 0.0
22/09:00pm 12.9 10.2 8.8 76 2.0 SW 13 19 7 10 1024.3 1024.3 0.0
22/08:30pm 12.9 10.1 8.4 74 2.2 SW 13 17 7 9 1024.3 - 0.0
22/08:00pm 13.1 10.0 7.3 68 2.8 S 13 17 7 9 1024.2 1024.2 0.0
22/07:30pm 13.6 9.7 7.2 65 3.1 S 17 20 9 11 1024.2 - 0.0
22/07:00pm 13.5 10.1 7.7 68 2.8 S 15 20 8 11 1024.3 1024.3 0.0

Other Formats:

Comma delimited format used in spreadsheet applications
http://www.bom.gov.au/fwo/IDN60801/IDN60801.94939.axf

JavaScript Object Notation format (JSON) in row-major order
http://www.bom.gov.au/fwo/IDN60801/IDN60801.94939.json